Caieiras, Brazil
Current Conditions -  °F | °C
As of 2:00 AM on Sunday 21 Dec 2014 (Local Time) from SBTE Reporting Station
Clear Clear  
Wind Chill: 82°   Ceiling: Unl
Heat Index: 85°   Visibility: 6mi
Dew Point: 68°   Wind: 2mph
Humidity: 62%   Direction: 350°N
Pressure: 29.83"   Gusts: NA
Location:  4.9°S, 42.98°W
Report Text: SBTE 210500Z 35002KT CAVOK 28/20 Q1010
Loading
Personal Weather Stations






























Interactive Weather Map New forecast layout! Learn more

10-Day Weather Forecast

Advertisements
Track Severe Weather on mobile